sensor_id;sensor_type;location;lat;lon;timestamp;P1;durP1;ratioP1;P2;durP2;ratioP2
45694;SDS011;31408;45.468;9.124;2023-11-18T00:01:43;0.50;;;0.40;;
45694;SDS011;31408;45.468;9.124;2023-11-18T00:04:09;1.42;;;0.52;;
45694;SDS011;31408;45.468;9.124;2023-11-18T00:06:41;2.83;;;1.45;;
45694;SDS011;31408;45.468;9.124;2023-11-18T00:09:06;0.52;;;0.52;;
45694;SDS011;31408;45.468;9.124;2023-11-18T00:11:31;2.35;;;0.88;;
45694;SDS011;31408;45.468;9.124;2023-11-18T00:13:57;2.03;;;0.65;;
45694;SDS011;31408;45.468;9.124;2023-11-18T00:16:23;0.40;;;0.35;;
45694;SDS011;31408;45.468;9.124;2023-11-18T00:18:48;0.43;;;0.43;;
45694;SDS011;31408;45.468;9.124;2023-11-18T00:21:13;2.17;;;0.75;;
45694;SDS011;31408;45.468;9.124;2023-11-18T00:23:39;1.30;;;0.73;;
45694;SDS011;31408;45.468;9.124;2023-11-18T00:26:04;0.50;;;0.50;;
45694;SDS011;31408;45.468;9.124;2023-11-18T00:28:31;1.45;;;0.95;;
45694;SDS011;31408;45.468;9.124;2023-11-18T00:30:57;0.52;;;0.50;;
45694;SDS011;31408;45.468;9.124;2023-11-18T00:33:22;1.08;;;0.55;;
45694;SDS011;31408;45.468;9.124;2023-11-18T00:35:48;2.83;;;0.77;;
45694;SDS011;31408;45.468;9.124;2023-11-18T00:38:13;0.85;;;0.70;;
45694;SDS011;31408;45.468;9.124;2023-11-18T00:40:43;2.05;;;0.88;;
45694;SDS011;31408;45.468;9.124;2023-11-18T00:43:09;0.40;;;0.40;;
45694;SDS011;31408;45.468;9.124;2023-11-18T00:45:34;0.73;;;0.65;;
45694;SDS011;31408;45.468;9.124;2023-11-18T00:48:00;0.75;;;0.40;;
45694;SDS011;31408;45.468;9.124;2023-11-18T00:50:25;0.38;;;0.38;;
45694;SDS011;31408;45.468;9.124;2023-11-18T00:52:50;1.15;;;0.43;;
45694;SDS011;31408;45.468;9.124;2023-11-18T00:55:16;0.50;;;0.50;;
45694;SDS011;31408;45.468;9.124;2023-11-18T00:57:43;0.43;;;0.40;;
45694;SDS011;31408;45.468;9.124;2023-11-18T01:00:11;0.20;;;0.20;;
45694;SDS011;31408;45.468;9.124;2023-11-18T01:02:39;0.40;;;0.40;;
45694;SDS011;31408;45.468;9.124;2023-11-18T01:05:05;0.30;;;0.30;;
45694;SDS011;31408;45.468;9.124;2023-11-18T01:07:30;0.22;;;0.22;;
45694;SDS011;31408;45.468;9.124;2023-11-18T01:09:55;0.30;;;0.30;;
45694;SDS011;31408;45.468;9.124;2023-11-18T01:12:21;0.35;;;0.30;;
45694;SDS011;31408;45.468;9.124;2023-11-18T01:14:46;2.63;;;0.77;;
45694;SDS011;31408;45.468;9.124;2023-11-18T01:17:11;1.00;;;0.70;;
45694;SDS011;31408;45.468;9.124;2023-11-18T01:19:39;1.10;;;0.73;;
45694;SDS011;31408;45.468;9.124;2023-11-18T01:22:04;0.60;;;0.50;;
45694;SDS011;31408;45.468;9.124;2023-11-18T01:24:33;0.50;;;0.50;;
45694;SDS011;31408;45.468;9.124;2023-11-18T01:27:00;1.20;;;0.73;;
45694;SDS011;31408;45.468;9.124;2023-11-18T01:29:25;0.52;;;0.50;;
45694;SDS011;31408;45.468;9.124;2023-11-18T01:31:52;0.80;;;0.80;;
45694;SDS011;31408;45.468;9.124;2023-11-18T01:34:19;0.57;;;0.57;;
45694;SDS011;31408;45.468;9.124;2023-11-18T01:36:47;0.85;;;0.60;;
45694;SDS011;31408;45.468;9.124;2023-11-18T01:39:14;0.60;;;0.35;;
45694;SDS011;31408;45.468;9.124;2023-11-18T01:41:40;0.47;;;0.47;;
45694;SDS011;31408;45.468;9.124;2023-11-18T01:44:05;0.65;;;0.55;;
45694;SDS011;31408;45.468;9.124;2023-11-18T01:46:31;0.40;;;0.40;;
45694;SDS011;31408;45.468;9.124;2023-11-18T01:48:56;1.20;;;0.50;;
45694;SDS011;31408;45.468;9.124;2023-11-18T01:51:21;0.50;;;0.50;;
45694;SDS011;31408;45.468;9.124;2023-11-18T01:53:48;2.65;;;0.70;;
45694;SDS011;31408;45.468;9.124;2023-11-18T01:56:15;0.45;;;0.45;;
45694;SDS011;31408;45.468;9.124;2023-11-18T01:58:40;0.38;;;0.38;;
45694;SDS011;31408;45.468;9.124;2023-11-18T02:01:11;0.30;;;0.30;;
45694;SDS011;31408;45.468;9.124;2023-11-18T02:03:36;0.30;;;0.30;;
45694;SDS011;31408;45.468;9.124;2023-11-18T02:06:03;0.40;;;0.40;;
45694;SDS011;31408;45.468;9.124;2023-11-18T02:08:32;0.40;;;0.40;;
45694;SDS011;31408;45.468;9.124;2023-11-18T02:11:01;1.15;;;0.50;;
45694;SDS011;31408;45.468;9.124;2023-11-18T02:13:32;0.65;;;0.65;;
45694;SDS011;31408;45.468;9.124;2023-11-18T02:15:59;1.35;;;0.52;;
45694;SDS011;31408;45.468;9.124;2023-11-18T02:18:25;0.75;;;0.52;;
45694;SDS011;31408;45.468;9.124;2023-11-18T02:20:52;1.10;;;0.95;;
45694;SDS011;31408;45.468;9.124;2023-11-18T02:23:17;1.63;;;0.80;;
45694;SDS011;31408;45.468;9.124;2023-11-18T02:25:44;3.08;;;1.25;;
45694;SDS011;31408;45.468;9.124;2023-11-18T02:28:09;1.08;;;0.68;;
45694;SDS011;31408;45.468;9.124;2023-11-18T02:30:35;1.52;;;0.73;;
45694;SDS011;31408;45.468;9.124;2023-11-18T02:33:05;1.80;;;0.90;;
45694;SDS011;31408;45.468;9.124;2023-11-18T02:35:50;1.70;;;0.88;;
45694;SDS011;31408;45.468;9.124;2023-11-18T02:38:18;1.73;;;1.17;;
45694;SDS011;31408;45.468;9.124;2023-11-18T02:40:44;1.52;;;0.95;;
45694;SDS011;31408;45.468;9.124;2023-11-18T02:43:10;1.33;;;1.05;;
45694;SDS011;31408;45.468;9.124;2023-11-18T02:45:36;1.48;;;0.80;;
45694;SDS011;31408;45.468;9.124;2023-11-18T02:48:02;1.02;;;0.65;;
45694;SDS011;31408;45.468;9.124;2023-11-18T02:50:28;1.35;;;0.80;;
45694;SDS011;31408;45.468;9.124;2023-11-18T02:52:54;1.30;;;0.90;;
45694;SDS011;31408;45.468;9.124;2023-11-18T02:55:19;1.42;;;0.70;;
45694;SDS011;31408;45.468;9.124;2023-11-18T02:57:47;1.70;;;0.90;;
45694;SDS011;31408;45.468;9.124;2023-11-18T03:00:12;1.52;;;0.95;;
45694;SDS011;31408;45.468;9.124;2023-11-18T03:02:43;1.35;;;0.85;;
45694;SDS011;31408;45.468;9.124;2023-11-18T03:05:09;1.63;;;1.25;;
45694;SDS011;31408;45.468;9.124;2023-11-18T03:07:37;1.15;;;0.70;;
45694;SDS011;31408;45.468;9.124;2023-11-18T03:10:02;1.25;;;0.60;;
45694;SDS011;31408;45.468;9.124;2023-11-18T03:15:01;0.75;;;0.75;;
45694;SDS011;31408;45.468;9.124;2023-11-18T03:17:26;1.85;;;1.00;;
45694;SDS011;31408;45.468;9.124;2023-11-18T03:19:52;1.17;;;0.60;;
45694;SDS011;31408;45.468;9.124;2023-11-18T03:22:18;1.17;;;1.08;;
45694;SDS011;31408;45.468;9.124;2023-11-18T03:24:43;1.65;;;1.27;;
45694;SDS011;31408;45.468;9.124;2023-11-18T03:27:09;1.10;;;1.00;;
45694;SDS011;31408;45.468;9.124;2023-11-18T03:29:40;1.25;;;1.15;;
45694;SDS011;31408;45.468;9.124;2023-11-18T03:32:05;0.88;;;0.70;;
45694;SDS011;31408;45.468;9.124;2023-11-18T03:34:31;1.25;;;1.10;;
45694;SDS011;31408;45.468;9.124;2023-11-18T03:36:56;0.65;;;0.65;;
45694;SDS011;31408;45.468;9.124;2023-11-18T03:39:22;1.30;;;0.80;;
45694;SDS011;31408;45.468;9.124;2023-11-18T03:41:47;0.88;;;0.60;;
45694;SDS011;31408;45.468;9.124;2023-11-18T03:44:13;0.65;;;0.65;;
45694;SDS011;31408;45.468;9.124;2023-11-18T03:46:38;0.73;;;0.65;;
45694;SDS011;31408;45.468;9.124;2023-11-18T03:49:04;2.08;;;1.27;;
45694;SDS011;31408;45.468;9.124;2023-11-18T03:51:29;2.60;;;0.98;;
45694;SDS011;31408;45.468;9.124;2023-11-18T03:53:55;1.08;;;0.75;;
45694;SDS011;31408;45.468;9.124;2023-11-18T03:56:20;1.70;;;1.05;;
45694;SDS011;31408;45.468;9.124;2023-11-18T03:58:46;1.95;;;1.15;;
45694;SDS011;31408;45.468;9.124;2023-11-18T04:01:24;2.08;;;1.20;;
45694;SDS011;31408;45.468;9.124;2023-11-18T04:03:52;0.95;;;0.85;;
45694;SDS011;31408;45.468;9.124;2023-11-18T04:06:18;0.85;;;0.70;;
45694;SDS011;31408;45.468;9.124;2023-11-18T04:08:46;3.58;;;1.08;;
45694;SDS011;31408;45.468;9.124;2023-11-18T04:11:12;4.40;;;0.80;;
45694;SDS011;31408;45.468;9.124;2023-11-18T04:13:39;2.10;;;1.17;;
45694;SDS011;31408;45.468;9.124;2023-11-18T04:16:04;0.68;;;0.65;;
45694;SDS011;31408;45.468;9.124;2023-11-18T04:18:31;0.90;;;0.73;;
45694;SDS011;31408;45.468;9.124;2023-11-18T04:21:02;1.13;;;0.82;;
45694;SDS011;31408;45.468;9.124;2023-11-18T04:23:27;1.83;;;0.90;;
45694;SDS011;31408;45.468;9.124;2023-11-18T04:25:52;1.00;;;0.90;;
45694;SDS011;31408;45.468;9.124;2023-11-18T04:28:18;1.65;;;0.82;;
45694;SDS011;31408;45.468;9.124;2023-11-18T04:30:45;2.33;;;1.05;;
45694;SDS011;31408;45.468;9.124;2023-11-18T04:33:10;1.60;;;1.08;;
45694;SDS011;31408;45.468;9.124;2023-11-18T04:35:37;1.35;;;0.70;;
45694;SDS011;31408;45.468;9.124;2023-11-18T04:38:02;1.05;;;0.95;;
45694;SDS011;31408;45.468;9.124;2023-11-18T04:40:29;1.40;;;0.93;;
45694;SDS011;31408;45.468;9.124;2023-11-18T04:42:54;1.27;;;0.95;;
45694;SDS011;31408;45.468;9.124;2023-11-18T04:45:19;3.13;;;1.00;;
45694;SDS011;31408;45.468;9.124;2023-11-18T04:47:45;0.88;;;0.88;;
45694;SDS011;31408;45.468;9.124;2023-11-18T04:50:10;3.38;;;1.25;;
45694;SDS011;31408;45.468;9.124;2023-11-18T04:52:36;0.93;;;0.82;;
45694;SDS011;31408;45.468;9.124;2023-11-18T04:55:02;2.88;;;1.30;;
45694;SDS011;31408;45.468;9.124;2023-11-18T04:57:28;1.35;;;1.02;;
45694;SDS011;31408;45.468;9.124;2023-11-18T04:59:53;1.80;;;1.33;;
45694;SDS011;31408;45.468;9.124;2023-11-18T05:02:19;3.83;;;1.67;;
45694;SDS011;31408;45.468;9.124;2023-11-18T05:04:44;5.38;;;1.90;;
45694;SDS011;31408;45.468;9.124;2023-11-18T05:07:10;1.52;;;1.20;;
45694;SDS011;31408;45.468;9.124;2023-11-18T05:09:35;1.75;;;1.10;;
45694;SDS011;31408;45.468;9.124;2023-11-18T05:12:00;1.13;;;0.98;;
45694;SDS011;31408;45.468;9.124;2023-11-18T05:14:25;0.80;;;0.80;;
45694;SDS011;31408;45.468;9.124;2023-11-18T05:16:51;4.15;;;1.58;;
45694;SDS011;31408;45.468;9.124;2023-11-18T05:19:17;1.17;;;1.05;;
45694;SDS011;31408;45.468;9.124;2023-11-18T05:21:42;1.75;;;1.05;;
45694;SDS011;31408;45.468;9.124;2023-11-18T05:24:08;0.73;;;0.73;;
45694;SDS011;31408;45.468;9.124;2023-11-18T05:26:34;2.15;;;1.27;;
45694;SDS011;31408;45.468;9.124;2023-11-18T05:29:00;3.42;;;1.27;;
45694;SDS011;31408;45.468;9.124;2023-11-18T05:31:25;1.63;;;1.00;;
45694;SDS011;31408;45.468;9.124;2023-11-18T05:33:50;0.85;;;0.70;;
45694;SDS011;31408;45.468;9.124;2023-11-18T05:36:20;1.63;;;1.48;;
45694;SDS011;31408;45.468;9.124;2023-11-18T05:38:52;2.17;;;1.25;;
45694;SDS011;31408;45.468;9.124;2023-11-18T05:41:17;6.22;;;1.40;;
45694;SDS011;31408;45.468;9.124;2023-11-18T05:43:52;3.28;;;0.98;;
45694;SDS011;31408;45.468;9.124;2023-11-18T05:46:18;2.35;;;1.30;;
45694;SDS011;31408;45.468;9.124;2023-11-18T05:48:48;2.33;;;1.00;;
45694;SDS011;31408;45.468;9.124;2023-11-18T05:51:14;5.45;;;1.70;;
45694;SDS011;31408;45.468;9.124;2023-11-18T05:53:43;3.25;;;1.42;;
45694;SDS011;31408;45.468;9.124;2023-11-18T05:56:12;0.87;;;0.83;;
45694;SDS011;31408;45.468;9.124;2023-11-18T05:58:38;1.35;;;0.90;;
45694;SDS011;31408;45.468;9.124;2023-11-18T06:01:08;1.38;;;1.17;;
45694;SDS011;31408;45.468;9.124;2023-11-18T06:03:34;1.05;;;0.95;;
45694;SDS011;31408;45.468;9.124;2023-11-18T06:06:04;3.30;;;1.20;;
45694;SDS011;31408;45.468;9.124;2023-11-18T06:08:32;4.00;;;1.17;;
45694;SDS011;31408;45.468;9.124;2023-11-18T06:10:57;0.75;;;0.75;;
45694;SDS011;31408;45.468;9.124;2023-11-18T06:13:22;1.77;;;1.05;;
45694;SDS011;31408;45.468;9.124;2023-11-18T06:15:49;1.85;;;1.10;;
45694;SDS011;31408;45.468;9.124;2023-11-18T06:18:16;1.17;;;0.98;;
45694;SDS011;31408;45.468;9.124;2023-11-18T06:20:42;3.13;;;1.25;;
45694;SDS011;31408;45.468;9.124;2023-11-18T06:23:07;2.15;;;1.17;;
45694;SDS011;31408;45.468;9.124;2023-11-18T06:25:33;1.42;;;1.10;;
45694;SDS011;31408;45.468;9.124;2023-11-18T06:27:59;1.13;;;1.02;;
45694;SDS011;31408;45.468;9.124;2023-11-18T06:30:25;0.88;;;0.82;;
45694;SDS011;31408;45.468;9.124;2023-11-18T06:32:51;1.00;;;1.00;;
45694;SDS011;31408;45.468;9.124;2023-11-18T06:35:16;2.30;;;0.70;;
45694;SDS011;31408;45.468;9.124;2023-11-18T06:37:42;2.83;;;1.10;;
45694;SDS011;31408;45.468;9.124;2023-11-18T06:40:08;2.28;;;1.60;;
45694;SDS011;31408;45.468;9.124;2023-11-18T06:42:44;0.90;;;0.90;;
45694;SDS011;31408;45.468;9.124;2023-11-18T06:45:12;7.18;;;1.50;;
45694;SDS011;31408;45.468;9.124;2023-11-18T06:47:38;1.85;;;1.10;;
45694;SDS011;31408;45.468;9.124;2023-11-18T06:50:04;1.38;;;1.02;;
45694;SDS011;31408;45.468;9.124;2023-11-18T06:52:29;1.70;;;1.48;;
45694;SDS011;31408;45.468;9.124;2023-11-18T06:54:54;1.40;;;1.30;;
45694;SDS011;31408;45.468;9.124;2023-11-18T06:57:20;3.53;;;1.23;;
45694;SDS011;31408;45.468;9.124;2023-11-18T06:59:46;1.63;;;1.08;;
45694;SDS011;31408;45.468;9.124;2023-11-18T07:02:12;3.22;;;1.65;;
45694;SDS011;31408;45.468;9.124;2023-11-18T07:04:38;5.55;;;1.50;;
45694;SDS011;31408;45.468;9.124;2023-11-18T07:07:03;1.90;;;1.25;;
45694;SDS011;31408;45.468;9.124;2023-11-18T07:09:29;2.22;;;1.42;;
45694;SDS011;31408;45.468;9.124;2023-11-18T07:11:54;2.50;;;1.42;;
45694;SDS011;31408;45.468;9.124;2023-11-18T07:14:21;5.80;;;1.60;;
45694;SDS011;31408;45.468;9.124;2023-11-18T07:16:46;3.67;;;2.13;;
45694;SDS011;31408;45.468;9.124;2023-11-18T07:19:12;6.47;;;2.05;;
45694;SDS011;31408;45.468;9.124;2023-11-18T07:21:45;1.65;;;1.15;;
45694;SDS011;31408;45.468;9.124;2023-11-18T07:24:10;2.78;;;1.70;;
45694;SDS011;31408;45.468;9.124;2023-11-18T07:26:36;6.85;;;1.55;;
45694;SDS011;31408;45.468;9.124;2023-11-18T07:29:01;1.92;;;1.33;;
45694;SDS011;31408;45.468;9.124;2023-11-18T07:31:27;1.30;;;1.20;;
45694;SDS011;31408;45.468;9.124;2023-11-18T07:33:53;10.73;;;2.22;;
45694;SDS011;31408;45.468;9.124;2023-11-18T07:36:19;2.38;;;1.20;;
45694;SDS011;31408;45.468;9.124;2023-11-18T07:38:48;2.78;;;1.20;;
45694;SDS011;31408;45.468;9.124;2023-11-18T07:41:15;4.07;;;1.27;;
45694;SDS011;31408;45.468;9.124;2023-11-18T07:43:51;3.65;;;1.50;;
45694;SDS011;31408;45.468;9.124;2023-11-18T07:46:20;1.67;;;1.05;;
45694;SDS011;31408;45.468;9.124;2023-11-18T07:48:47;2.60;;;1.55;;
45694;SDS011;31408;45.468;9.124;2023-11-18T07:51:14;3.72;;;1.63;;
45694;SDS011;31408;45.468;9.124;2023-11-18T07:53:39;2.72;;;1.60;;
45694;SDS011;31408;45.468;9.124;2023-11-18T07:56:04;3.47;;;1.30;;
45694;SDS011;31408;45.468;9.124;2023-11-18T07:58:32;1.40;;;0.90;;
45694;SDS011;31408;45.468;9.124;2023-11-18T08:01:01;1.95;;;1.50;;
45694;SDS011;31408;45.468;9.124;2023-11-18T08:03:28;2.17;;;1.27;;
45694;SDS011;31408;45.468;9.124;2023-11-18T08:05:56;2.03;;;1.15;;
45694;SDS011;31408;45.468;9.124;2023-11-18T08:08:23;2.42;;;1.10;;
45694;SDS011;31408;45.468;9.124;2023-11-18T08:10:48;2.47;;;1.10;;
45694;SDS011;31408;45.468;9.124;2023-11-18T08:13:13;1.55;;;1.13;;
45694;SDS011;31408;45.468;9.124;2023-11-18T08:15:39;2.95;;;1.48;;
45694;SDS011;31408;45.468;9.124;2023-11-18T08:18:05;1.55;;;1.13;;
45694;SDS011;31408;45.468;9.124;2023-11-18T08:20:31;1.35;;;0.98;;
45694;SDS011;31408;45.468;9.124;2023-11-18T08:22:56;3.08;;;1.30;;
45694;SDS011;31408;45.468;9.124;2023-11-18T08:25:22;2.03;;;1.05;;
45694;SDS011;31408;45.468;9.124;2023-11-18T08:27:47;3.17;;;1.20;;
45694;SDS011;31408;45.468;9.124;2023-11-18T08:30:13;4.40;;;0.95;;
45694;SDS011;31408;45.468;9.124;2023-11-18T08:32:40;7.75;;;1.95;;
45694;SDS011;31408;45.468;9.124;2023-11-18T08:35:06;6.85;;;1.27;;
45694;SDS011;31408;45.468;9.124;2023-11-18T08:37:38;3.42;;;1.48;;
45694;SDS011;31408;45.468;9.124;2023-11-18T08:40:03;1.67;;;1.33;;
45694;SDS011;31408;45.468;9.124;2023-11-18T08:42:31;2.30;;;1.58;;
45694;SDS011;31408;45.468;9.124;2023-11-18T08:44:57;1.88;;;1.35;;
45694;SDS011;31408;45.468;9.124;2023-11-18T08:47:24;2.25;;;1.50;;
45694;SDS011;31408;45.468;9.124;2023-11-18T08:49:49;4.28;;;1.38;;
45694;SDS011;31408;45.468;9.124;2023-11-18T08:52:15;2.10;;;1.25;;
45694;SDS011;31408;45.468;9.124;2023-11-18T08:54:43;1.73;;;1.23;;
45694;SDS011;31408;45.468;9.124;2023-11-18T08:57:28;6.25;;;1.77;;
45694;SDS011;31408;45.468;9.124;2023-11-18T09:00:18;3.90;;;1.92;;
45694;SDS011;31408;45.468;9.124;2023-11-18T09:03:02;5.57;;;1.48;;
45694;SDS011;31408;45.468;9.124;2023-11-18T09:05:31;6.10;;;1.70;;
45694;SDS011;31408;45.468;9.124;2023-11-18T09:07:57;11.32;;;2.20;;
45694;SDS011;31408;45.468;9.124;2023-11-18T09:10:28;21.52;;;4.18;;
45694;SDS011;31408;45.468;9.124;2023-11-18T09:12:54;15.70;;;2.80;;
45694;SDS011;31408;45.468;9.124;2023-11-18T09:15:19;4.05;;;1.52;;
45694;SDS011;31408;45.468;9.124;2023-11-18T09:17:50;4.32;;;1.98;;
45694;SDS011;31408;45.468;9.124;2023-11-18T09:20:17;2.55;;;1.70;;
45694;SDS011;31408;45.468;9.124;2023-11-18T09:22:47;2.22;;;1.45;;
45694;SDS011;31408;45.468;9.124;2023-11-18T09:25:13;8.10;;;2.28;;
45694;SDS011;31408;45.468;9.124;2023-11-18T09:27:39;3.00;;;1.83;;
45694;SDS011;31408;45.468;9.124;2023-11-18T09:30:05;7.72;;;2.50;;
45694;SDS011;31408;45.468;9.124;2023-11-18T09:32:41;3.92;;;1.75;;
45694;SDS011;31408;45.468;9.124;2023-11-18T09:35:07;2.30;;;1.40;;
45694;SDS011;31408;45.468;9.124;2023-11-18T09:37:34;1.63;;;1.40;;
45694;SDS011;31408;45.468;9.124;2023-11-18T09:40:00;4.32;;;1.73;;
45694;SDS011;31408;45.468;9.124;2023-11-18T09:42:36;3.42;;;1.88;;
45694;SDS011;31408;45.468;9.124;2023-11-18T09:45:05;6.68;;;2.55;;
45694;SDS011;31408;45.468;9.124;2023-11-18T09:47:38;5.38;;;2.30;;
45694;SDS011;31408;45.468;9.124;2023-11-18T09:50:08;4.65;;;1.80;;
45694;SDS011;31408;45.468;9.124;2023-11-18T09:52:35;6.05;;;2.25;;
45694;SDS011;31408;45.468;9.124;2023-11-18T09:55:02;3.20;;;1.63;;
45694;SDS011;31408;45.468;9.124;2023-11-18T09:57:32;3.97;;;2.17;;
45694;SDS011;31408;45.468;9.124;2023-11-18T10:02:51;4.10;;;1.83;;
45694;SDS011;31408;45.468;9.124;2023-11-18T10:05:19;4.28;;;1.83;;
45694;SDS011;31408;45.468;9.124;2023-11-18T10:07:49;12.27;;;1.73;;
45694;SDS011;31408;45.468;9.124;2023-11-18T10:10:15;6.72;;;1.42;;
45694;SDS011;31408;45.468;9.124;2023-11-18T10:12:44;3.60;;;1.85;;
45694;SDS011;31408;45.468;9.124;2023-11-18T10:15:13;7.95;;;2.00;;
45694;SDS011;31408;45.468;9.124;2023-11-18T10:17:42;4.38;;;2.05;;
45694;SDS011;31408;45.468;9.124;2023-11-18T10:23:26;2.38;;;1.73;;
45694;SDS011;31408;45.468;9.124;2023-11-18T10:25:53;2.97;;;2.25;;
45694;SDS011;31408;45.468;9.124;2023-11-18T10:30:52;6.20;;;2.75;;
45694;SDS011;31408;45.468;9.124;2023-11-18T10:33:18;4.20;;;1.92;;
45694;SDS011;31408;45.468;9.124;2023-11-18T10:35:50;7.43;;;2.08;;
45694;SDS011;31408;45.468;9.124;2023-11-18T10:38:21;6.20;;;1.83;;
45694;SDS011;31408;45.468;9.124;2023-11-18T10:40:52;6.93;;;1.77;;
45694;SDS011;31408;45.468;9.124;2023-11-18T10:43:17;6.68;;;2.20;;
45694;SDS011;31408;45.468;9.124;2023-11-18T10:45:43;4.25;;;2.15;;
45694;SDS011;31408;45.468;9.124;2023-11-18T10:48:10;3.03;;;2.03;;
45694;SDS011;31408;45.468;9.124;2023-11-18T10:50:38;6.50;;;2.25;;
45694;SDS011;31408;45.468;9.124;2023-11-18T10:53:03;3.00;;;2.08;;
45694;SDS011;31408;45.468;9.124;2023-11-18T10:55:39;8.90;;;2.42;;
45694;SDS011;31408;45.468;9.124;2023-11-18T10:58:05;2.95;;;1.95;;
45694;SDS011;31408;45.468;9.124;2023-11-18T11:03:14;5.10;;;2.00;;
45694;SDS011;31408;45.468;9.124;2023-11-18T11:05:39;5.43;;;2.58;;
45694;SDS011;31408;45.468;9.124;2023-11-18T11:08:07;5.05;;;1.88;;
45694;SDS011;31408;45.468;9.124;2023-11-18T11:10:33;4.15;;;2.00;;
45694;SDS011;31408;45.468;9.124;2023-11-18T11:13:00;3.55;;;2.10;;
45694;SDS011;31408;45.468;9.124;2023-11-18T11:15:30;3.55;;;2.30;;
45694;SDS011;31408;45.468;9.124;2023-11-18T11:17:57;2.75;;;1.98;;
45694;SDS011;31408;45.468;9.124;2023-11-18T11:20:33;2.95;;;1.63;;
45694;SDS011;31408;45.468;9.124;2023-11-18T11:28:09;2.78;;;2.08;;
45694;SDS011;31408;45.468;9.124;2023-11-18T11:33:55;2.40;;;1.60;;
45694;SDS011;31408;45.468;9.124;2023-11-18T11:36:14;6.05;;;2.13;;
45694;SDS011;31408;45.468;9.124;2023-11-18T11:38:41;4.80;;;1.77;;
45694;SDS011;31408;45.468;9.124;2023-11-18T11:41:11;3.05;;;1.55;;
45694;SDS011;31408;45.468;9.124;2023-11-18T11:43:45;2.22;;;1.58;;
45694;SDS011;31408;45.468;9.124;2023-11-18T11:46:11;5.72;;;2.10;;
45694;SDS011;31408;45.468;9.124;2023-11-18T11:48:38;2.15;;;1.70;;
45694;SDS011;31408;45.468;9.124;2023-11-18T11:53:55;3.25;;;1.58;;
45694;SDS011;31408;45.468;9.124;2023-11-18T11:56:37;3.75;;;1.45;;
45694;SDS011;31408;45.468;9.124;2023-11-18T11:59:02;4.45;;;1.50;;
45694;SDS011;31408;45.468;9.124;2023-11-18T12:01:32;2.28;;;1.35;;
45694;SDS011;31408;45.468;9.124;2023-11-18T12:04:03;1.77;;;1.30;;
45694;SDS011;31408;45.468;9.124;2023-11-18T12:06:32;3.15;;;1.67;;
45694;SDS011;31408;45.468;9.124;2023-11-18T12:09:00;2.35;;;1.10;;
45694;SDS011;31408;45.468;9.124;2023-11-18T12:11:32;2.15;;;1.27;;
45694;SDS011;31408;45.468;9.124;2023-11-18T12:14:02;5.97;;;1.27;;
45694;SDS011;31408;45.468;9.124;2023-11-18T12:19:33;1.90;;;1.30;;
45694;SDS011;31408;45.468;9.124;2023-11-18T12:22:10;1.05;;;0.50;;
45694;SDS011;31408;45.468;9.124;2023-11-18T12:27:08;1.45;;;0.55;;
45694;SDS011;31408;45.468;9.124;2023-11-18T12:29:44;1.52;;;1.02;;
45694;SDS011;31408;45.468;9.124;2023-11-18T12:32:09;0.90;;;0.90;;
45694;SDS011;31408;45.468;9.124;2023-11-18T12:34:51;0.53;;;0.50;;
45694;SDS011;31408;45.468;9.124;2023-11-18T12:45:50;1.27;;;0.82;;
45694;SDS011;31408;45.468;9.124;2023-11-18T12:47:51;1.17;;;0.68;;
45694;SDS011;31408;45.468;9.124;2023-11-18T12:50:20;0.80;;;0.50;;
45694;SDS011;31408;45.468;9.124;2023-11-18T12:52:52;1.98;;;0.68;;
45694;SDS011;31408;45.468;9.124;2023-11-18T12:55:18;1.77;;;0.60;;
45694;SDS011;31408;45.468;9.124;2023-11-18T12:57:47;0.68;;;0.68;;
45694;SDS011;31408;45.468;9.124;2023-11-18T13:00:13;3.90;;;1.23;;
45694;SDS011;31408;45.468;9.124;2023-11-18T13:02:42;1.25;;;0.82;;
45694;SDS011;31408;45.468;9.124;2023-11-18T13:05:07;1.45;;;1.05;;
45694;SDS011;31408;45.468;9.124;2023-11-18T13:07:35;1.02;;;0.75;;
45694;SDS011;31408;45.468;9.124;2023-11-18T13:10:01;2.22;;;0.75;;
45694;SDS011;31408;45.468;9.124;2023-11-18T13:12:28;1.48;;;1.00;;
45694;SDS011;31408;45.468;9.124;2023-11-18T13:14:53;1.45;;;1.00;;
45694;SDS011;31408;45.468;9.124;2023-11-18T13:17:20;1.77;;;0.80;;
45694;SDS011;31408;45.468;9.124;2023-11-18T13:19:47;2.70;;;0.93;;
45694;SDS011;31408;45.468;9.124;2023-11-18T13:22:13;2.30;;;1.58;;
45694;SDS011;31408;45.468;9.124;2023-11-18T13:24:40;2.47;;;0.93;;
45694;SDS011;31408;45.468;9.124;2023-11-18T13:27:06;1.95;;;1.02;;
45694;SDS011;31408;45.468;9.124;2023-11-18T13:29:33;4.65;;;0.80;;
45694;SDS011;31408;45.468;9.124;2023-11-18T13:32:00;0.88;;;0.77;;
45694;SDS011;31408;45.468;9.124;2023-11-18T13:34:28;6.82;;;1.13;;
45694;SDS011;31408;45.468;9.124;2023-11-18T13:36:55;1.35;;;0.55;;
45694;SDS011;31408;45.468;9.124;2023-11-18T13:39:21;5.88;;;0.82;;
45694;SDS011;31408;45.468;9.124;2023-11-18T13:41:48;0.75;;;0.73;;
45694;SDS011;31408;45.468;9.124;2023-11-18T13:47:06;0.93;;;0.57;;
45694;SDS011;31408;45.468;9.124;2023-11-18T13:49:32;2.95;;;1.05;;
45694;SDS011;31408;45.468;9.124;2023-11-18T13:52:00;0.82;;;0.80;;
45694;SDS011;31408;45.468;9.124;2023-11-18T13:54:27;2.35;;;1.00;;
45694;SDS011;31408;45.468;9.124;2023-11-18T13:56:53;1.00;;;0.77;;
45694;SDS011;31408;45.468;9.124;2023-11-18T13:59:23;1.17;;;0.85;;
45694;SDS011;31408;45.468;9.124;2023-11-18T14:01:48;1.65;;;1.08;;
45694;SDS011;31408;45.468;9.124;2023-11-18T14:04:14;1.40;;;1.05;;
45694;SDS011;31408;45.468;9.124;2023-11-18T14:06:40;1.40;;;1.02;;
45694;SDS011;31408;45.468;9.124;2023-11-18T14:09:07;1.02;;;0.80;;
45694;SDS011;31408;45.468;9.124;2023-11-18T14:11:35;0.82;;;0.82;;
45694;SDS011;31408;45.468;9.124;2023-11-18T14:14:00;2.08;;;1.13;;
45694;SDS011;31408;45.468;9.124;2023-11-18T14:16:26;1.48;;;0.90;;
45694;SDS011;31408;45.468;9.124;2023-11-18T14:18:51;0.95;;;0.57;;
45694;SDS011;31408;45.468;9.124;2023-11-18T14:21:16;0.77;;;0.70;;
45694;SDS011;31408;45.468;9.124;2023-11-18T14:23:42;3.00;;;1.13;;
45694;SDS011;31408;45.468;9.124;2023-11-18T14:26:07;1.60;;;0.93;;
45694;SDS011;31408;45.468;9.124;2023-11-18T14:28:33;2.35;;;1.10;;
45694;SDS011;31408;45.468;9.124;2023-11-18T14:31:00;0.98;;;0.70;;
45694;SDS011;31408;45.468;9.124;2023-11-18T14:33:25;2.78;;;1.13;;
45694;SDS011;31408;45.468;9.124;2023-11-18T14:35:51;2.03;;;1.00;;
45694;SDS011;31408;45.468;9.124;2023-11-18T14:38:16;2.90;;;0.95;;
45694;SDS011;31408;45.468;9.124;2023-11-18T14:40:48;1.65;;;1.00;;
45694;SDS011;31408;45.468;9.124;2023-11-18T14:43:14;1.98;;;1.23;;
45694;SDS011;31408;45.468;9.124;2023-11-18T14:45:40;1.30;;;1.05;;
45694;SDS011;31408;45.468;9.124;2023-11-18T14:48:05;0.85;;;0.77;;
45694;SDS011;31408;45.468;9.124;2023-11-18T14:50:31;2.40;;;0.95;;
45694;SDS011;31408;45.468;9.124;2023-11-18T14:52:56;0.95;;;0.95;;
45694;SDS011;31408;45.468;9.124;2023-11-18T14:55:28;3.35;;;0.95;;
45694;SDS011;31408;45.468;9.124;2023-11-18T14:57:54;1.98;;;1.30;;
45694;SDS011;31408;45.468;9.124;2023-11-18T15:00:20;1.40;;;0.75;;
45694;SDS011;31408;45.468;9.124;2023-11-18T15:02:52;4.93;;;1.85;;
45694;SDS011;31408;45.468;9.124;2023-11-18T15:05:18;1.25;;;1.05;;
45694;SDS011;31408;45.468;9.124;2023-11-18T15:07:44;2.63;;;1.58;;
45694;SDS011;31408;45.468;9.124;2023-11-18T15:10:10;0.75;;;0.75;;
45694;SDS011;31408;45.468;9.124;2023-11-18T15:12:36;2.42;;;1.40;;
45694;SDS011;31408;45.468;9.124;2023-11-18T15:15:02;1.90;;;1.05;;
45694;SDS011;31408;45.468;9.124;2023-11-18T15:17:29;2.70;;;1.27;;
45694;SDS011;31408;45.468;9.124;2023-11-18T15:19:54;1.73;;;1.33;;
45694;SDS011;31408;45.468;9.124;2023-11-18T15:22:21;1.10;;;1.00;;
45694;SDS011;31408;45.468;9.124;2023-11-18T15:24:46;4.97;;;1.75;;
45694;SDS011;31408;45.468;9.124;2023-11-18T15:27:12;1.63;;;1.10;;
45694;SDS011;31408;45.468;9.124;2023-11-18T15:29:40;2.78;;;1.67;;